Time;durP1;ratioP1;P1;durP2;ratioP2;P2;SDS_P1;SDS_P2;PMS_P1;PMS_P2;Temp;Humidity;BMP_temperature;BMP_pressure;BME280_temperature;BME280_humidity;BME280_pressure;Samples;Min_cycle;Max_cycle;Signal;HPM_P1;HPM_P2
2023/04/04 00:01:38;;;;;;;1999.90;999.90;;;;;;;0.80;100.00;95949.59;5063851;28;20173;-70
2023/04/04 00:04:03;;;;;;;1999.90;999.90;;;;;;;0.83;100.00;95943.56;5067029;28;20161;-70
2023/04/04 00:06:29;;;;;;;1999.90;999.90;;;;;;;0.78;100.00;95945.66;5067992;28;20169;-70
2023/04/04 00:08:54;;;;;;;1999.90;999.90;;;;;;;0.83;100.00;95948.94;5067510;28;20165;-70
2023/04/04 00:11:20;;;;;;;1999.90;999.90;;;;;;;0.80;100.00;95938.84;5068122;28;20271;-70
2023/04/04 00:13:46;;;;;;;1999.90;999.90;;;;;;;0.84;100.00;95939.75;5067245;28;20339;-69
2023/04/04 00:16:12;;;;;;;1999.90;999.90;;;;;;;0.86;100.00;95932.19;5067365;28;20364;-70
2023/04/04 00:18:37;;;;;;;1999.90;999.90;;;;;;;0.76;100.00;95943.31;5067404;28;20189;-69
2023/04/04 00:21:03;;;;;;;1999.90;999.90;;;;;;;0.85;100.00;95930.63;5067256;28;20215;-70
2023/04/04 00:23:28;;;;;;;1999.90;999.90;;;;;;;0.72;100.00;95942.38;5068078;28;20203;-70
2023/04/04 00:25:54;;;;;;;1999.90;999.90;;;;;;;0.74;100.00;95939.38;5067748;28;20322;-71
2023/04/04 00:28:20;;;;;;;1999.90;999.90;;;;;;;0.69;100.00;95920.78;5067937;28;20173;-69
2023/04/04 00:30:47;;;;;;;1999.90;999.90;;;;;;;0.74;100.00;95932.13;5066753;28;20224;-68
2023/04/04 00:33:15;;;;;;;1999.90;999.90;;;;;;;0.66;100.00;95930.28;5067062;28;20180;-68
2023/04/04 00:35:40;;;;;;;1999.90;999.90;;;;;;;0.60;100.00;95928.09;5067098;28;20249;-68
2023/04/04 00:38:06;;;;;;;1999.90;999.90;;;;;;;0.63;100.00;95925.56;5066941;28;20222;-69
2023/04/04 00:40:39;;;;;;;1999.90;999.90;;;;;;;0.59;100.00;95911.22;5067038;28;20388;-68
2023/04/04 00:43:05;;;;;;;1999.90;999.90;;;;;;;0.48;100.00;95914.59;5067428;28;20165;-69
2023/04/04 00:45:31;;;;;;;1999.90;999.90;;;;;;;0.42;100.00;95911.31;5066873;28;20311;-68
2023/04/04 00:47:57;;;;;;;1999.90;999.90;;;;;;;0.44;100.00;95909.09;5066688;28;20173;-69
2023/04/04 00:50:22;;;;;;;1999.90;999.90;;;;;;;0.40;100.00;95902.00;5067334;28;20199;-68
2023/04/04 00:52:48;;;;;;;1999.90;999.90;;;;;;;0.43;100.00;95907.50;5067280;28;20169;-69
2023/04/04 00:55:13;;;;;;;1999.90;999.90;;;;;;;0.34;100.00;95908.69;5066692;28;20189;-69
2023/04/04 00:57:38;;;;;;;1999.90;999.90;;;;;;;0.35;100.00;95900.31;5066661;28;20173;-69
2023/04/04 01:00:05;;;;;;;1999.90;999.90;;;;;;;0.31;100.00;95904.75;5066602;28;20176;-69
2023/04/04 01:02:31;;;;;;;1999.90;999.90;;;;;;;0.24;100.00;95896.41;5066579;28;20168;-69
2023/04/04 01:04:56;;;;;;;1999.90;999.90;;;;;;;0.21;100.00;95898.97;5066515;28;20379;-72
2023/04/04 01:07:22;;;;;;;1999.90;999.90;;;;;;;0.28;100.00;95900.03;5066420;28;20384;-68
2023/04/04 01:09:47;;;;;;;1999.90;999.90;;;;;;;0.21;100.00;95899.75;5066318;28;20193;-69
2023/04/04 01:12:13;;;;;;;1999.90;999.90;;;;;;;0.21;100.00;95894.38;5066881;28;20230;-67
2023/04/04 01:14:39;;;;;;;1999.90;999.90;;;;;;;0.12;100.00;95896.34;5065436;28;20190;-68
2023/04/04 01:17:04;;;;;;;1999.90;999.90;;;;;;;0.13;100.00;95889.06;5066745;28;20251;-68
2023/04/04 01:19:37;;;;;;;1999.90;999.90;;;;;;;0.08;100.00;95887.38;5066177;28;20171;-69
2023/04/04 01:22:05;;;;;;;1999.90;999.90;;;;;;;0.09;100.00;95886.25;5066687;28;20164;-68
2023/04/04 01:24:33;;;;;;;1999.90;999.90;;;;;;;0.12;100.00;95884.81;5066152;28;20172;-69
2023/04/04 01:26:59;;;;;;;1999.90;999.90;;;;;;;0.05;100.00;95885.31;5066539;28;20170;-68
2023/04/04 01:29:26;;;;;;;1999.90;999.90;;;;;;;0.04;100.00;95878.38;5066206;28;20219;-69
2023/04/04 01:31:58;;;;;;;1999.90;999.90;;;;;;;-0.09;100.00;95884.75;5066545;28;20190;-68
2023/04/04 01:34:39;;;;;;;1999.90;999.90;;;;;;;-0.06;100.00;95881.44;5066491;28;20171;-69
2023/04/04 01:37:12;;;;;;;1999.90;999.90;;;;;;;-0.17;100.00;95880.22;5066407;28;20520;-70
2023/04/04 01:39:52;;;;;;;1999.90;999.90;;;;;;;-0.17;100.00;95882.91;5066186;28;20171;-69
2023/04/04 01:42:19;;;;;;;1999.90;999.90;;;;;;;-0.22;100.00;95873.13;5066303;28;20158;-71
2023/04/04 01:44:45;;;;;;;1999.90;999.90;;;;;;;-0.29;100.00;95869.41;5065756;28;20217;-69
2023/04/04 01:47:13;;;;;;;1999.90;999.90;;;;;;;-0.26;100.00;95876.78;5066155;28;20210;-70
2023/04/04 01:49:39;;;;;;;1999.90;999.90;;;;;;;-0.28;100.00;95866.38;5065591;28;22044;-70
2023/04/04 01:52:06;;;;;;;1999.90;999.90;;;;;;;-0.40;100.00;95871.63;5065512;28;20218;-67
2023/04/04 01:54:32;;;;;;;1999.90;999.90;;;;;;;-0.32;100.00;95870.03;5065824;28;20195;-68
2023/04/04 01:56:58;;;;;;;1999.90;999.90;;;;;;;-0.47;100.00;95873.25;5065442;28;20172;-68
2023/04/04 01:59:23;;;;;;;1999.90;999.90;;;;;;;-0.47;100.00;95863.31;5065506;28;20179;-67
2023/04/04 02:01:49;;;;;;;1999.90;999.90;;;;;;;-0.49;100.00;95864.72;5065703;28;20173;-70
2023/04/04 02:04:14;;;;;;;1999.90;999.90;;;;;;;-0.48;100.00;95866.31;5065787;28;20208;-69
2023/04/04 02:06:40;;;;;;;1999.90;999.90;;;;;;;-0.58;100.00;95870.13;5065402;28;20175;-69
2023/04/04 02:09:05;;;;;;;1999.90;999.90;;;;;;;-0.56;100.00;95869.81;5065771;28;20178;-70
2023/04/04 02:11:32;;;;;;;1999.90;999.90;;;;;;;-0.60;100.00;95869.66;5065932;28;20203;-69
2023/04/04 02:13:57;;;;;;;1999.90;999.90;;;;;;;-0.61;100.00;95861.94;5065220;28;20172;-68
2023/04/04 02:16:22;;;;;;;1999.90;999.90;;;;;;;-0.64;100.00;95867.94;5065257;28;20167;-71
2023/04/04 02:18:48;;;;;;;1999.90;999.90;;;;;;;-0.61;100.00;95864.63;5065600;28;20197;-71
2023/04/04 02:21:14;;;;;;;1999.90;999.90;;;;;;;-0.66;100.00;95864.78;5065512;28;20171;-71
2023/04/04 02:23:39;;;;;;;1999.90;999.90;;;;;;;-0.67;100.00;95866.69;5065805;28;20167;-71
2023/04/04 02:26:05;;;;;;;1999.90;999.90;;;;;;;-0.71;100.00;95867.66;5064686;28;20242;-72
2023/04/04 02:28:30;;;;;;;1999.90;999.90;;;;;;;-0.74;100.00;95857.56;5064928;28;20170;-71
2023/04/04 02:31:01;;;;;;;1999.90;999.90;;;;;;;-0.76;100.00;95860.56;5064773;28;20605;-72
2023/04/04 02:33:26;;;;;;;1999.90;999.90;;;;;;;-0.84;100.00;95856.00;5065302;28;20168;-71
2023/04/04 02:35:52;;;;;;;1999.90;999.90;;;;;;;-0.85;100.00;95854.44;5064904;28;20166;-72
2023/04/04 02:38:17;;;;;;;1999.90;999.90;;;;;;;-0.86;100.00;95860.91;5064697;28;20174;-71
2023/04/04 02:40:45;;;;;;;1999.90;999.90;;;;;;;-0.87;100.00;95853.19;5065196;28;20273;-72
2023/04/04 02:43:10;;;;;;;1999.90;999.90;;;;;;;-0.94;100.00;95848.31;5064585;28;20173;-72
2023/04/04 02:45:35;;;;;;;1999.90;999.90;;;;;;;-0.90;100.00;95853.81;5064857;28;20182;-72
2023/04/04 02:48:02;;;;;;;1999.90;999.90;;;;;;;-1.00;100.00;95851.47;5064983;28;20251;-69
2023/04/04 02:50:27;;;;;;;1999.90;999.90;;;;;;;-1.00;100.00;95854.16;5064901;28;20206;-70
2023/04/04 02:52:58;;;;;;;1999.90;999.90;;;;;;;-1.03;100.00;95850.22;5064968;28;20183;-71
2023/04/04 02:55:23;;;;;;;1999.90;999.90;;;;;;;-1.00;100.00;95848.78;5064437;28;20259;-69
2023/04/04 02:57:52;;;;;;;1999.90;999.90;;;;;;;-1.05;100.00;95851.66;5064412;28;20177;-69
2023/04/04 03:00:18;;;;;;;1999.90;999.90;;;;;;;-1.02;100.00;95849.13;5063953;28;20170;-70
2023/04/04 03:02:43;;;;;;;1999.90;999.90;;;;;;;-1.05;100.00;95841.72;5064292;28;20174;-70
2023/04/04 03:05:08;;;;;;;1999.90;999.90;;;;;;;-1.03;100.00;95838.72;5064464;28;20216;-71
2023/04/04 03:07:34;;;;;;;1999.90;999.90;;;;;;;-1.05;100.00;95836.34;5064739;28;20249;-70
2023/04/04 03:09:59;;;;;;;1999.90;999.90;;;;;;;-1.07;100.00;95835.09;5064084;28;20225;-71
2023/04/04 03:12:26;;;;;;;1999.90;999.90;;;;;;;-1.10;100.00;95838.41;5064177;28;20178;-70
2023/04/04 03:14:51;;;;;;;1999.90;999.90;;;;;;;-1.17;100.00;95836.22;5064677;28;20170;-70
2023/04/04 03:17:17;;;;;;;1999.90;999.90;;;;;;;-1.13;100.00;95828.34;5064521;28;20406;-69
2023/04/04 03:19:42;;;;;;;1999.90;999.90;;;;;;;-1.17;100.00;95827.41;5063988;28;20220;-69
2023/04/04 03:22:08;;;;;;;1999.90;999.90;;;;;;;-1.20;100.00;95833.41;5064482;28;20479;-70
2023/04/04 03:24:34;;;;;;;1999.90;999.90;;;;;;;-1.22;100.00;95830.25;5064469;28;20170;-69
2023/04/04 03:27:00;;;;;;;1999.90;999.90;;;;;;;-1.23;100.00;95828.69;5064221;28;20170;-71
2023/04/04 03:29:25;;;;;;;1999.90;999.90;;;;;;;-1.28;100.00;95826.19;5063608;28;20233;-67
2023/04/04 03:31:51;;;;;;;1999.90;999.90;;;;;;;-1.30;100.00;95828.38;5063638;28;20167;-68
2023/04/04 03:34:17;;;;;;;1999.90;999.90;;;;;;;-1.28;100.00;95831.53;5063855;28;20173;-68
2023/04/04 03:36:42;;;;;;;1999.90;999.90;;;;;;;-1.31;100.00;95824.13;5064164;28;20259;-68
2023/04/04 03:39:07;;;;;;;1999.90;999.90;;;;;;;-1.31;100.00;95816.09;5063977;28;20181;-71
2023/04/04 03:41:34;;;;;;;1999.90;999.90;;;;;;;-1.34;100.00;95827.44;5063843;28;20190;-70
2023/04/04 03:43:59;;;;;;;1999.90;999.90;;;;;;;-1.33;100.00;95829.81;5063630;28;20211;-71
2023/04/04 03:46:25;;;;;;;1999.90;999.90;;;;;;;-1.30;100.00;95831.06;5063729;28;20171;-70
2023/04/04 03:48:50;;;;;;;1999.90;999.90;;;;;;;-1.34;100.00;95832.78;5063628;28;20170;-70
2023/04/04 03:51:24;;;;;;;1999.90;999.90;;;;;;;-1.33;100.00;95829.81;5063648;28;20185;-70
2023/04/04 03:53:49;;;;;;;1999.90;999.90;;;;;;;-1.32;100.00;95841.28;5063990;28;20251;-69
2023/04/04 03:56:15;;;;;;;1999.90;999.90;;;;;;;-1.43;100.00;95840.03;5063691;28;20187;-71
2023/04/04 03:58:40;;;;;;;1999.90;999.90;;;;;;;-1.41;100.00;95844.00;5063631;28;20224;-71
2023/04/04 04:01:06;;;;;;;1999.90;999.90;;;;;;;-1.41;100.00;95838.63;5063632;28;20194;-71
2023/04/04 04:03:31;;;;;;;1999.90;999.90;;;;;;;-1.41;100.00;95843.19;5063502;28;20174;-71
2023/04/04 04:05:58;;;;;;;1999.90;999.90;;;;;;;-1.42;100.00;95846.97;5064346;28;20185;-71
2023/04/04 04:08:23;;;;;;;1999.90;999.90;;;;;;;-1.48;100.00;95843.69;5063431;28;20263;-71
2023/04/04 04:10:49;;;;;;;1999.90;999.90;;;;;;;-1.44;100.00;95846.50;5064241;28;20200;-70
2023/04/04 04:13:14;;;;;;;1999.90;999.90;;;;;;;-1.46;100.00;95846.03;5063909;28;20166;-70
2023/04/04 04:15:40;;;;;;;1999.90;999.90;;;;;;;-1.49;100.00;95841.31;5063415;28;20170;-70
2023/04/04 04:18:05;;;;;;;1999.90;999.90;;;;;;;-1.49;100.00;95852.03;5063880;28;20223;-72
2023/04/04 04:20:31;;;;;;;1999.90;999.90;;;;;;;-1.52;100.00;95841.94;5063915;28;20170;-71
2023/04/04 04:22:56;;;;;;;1999.90;999.90;;;;;;;-1.52;100.00;95837.38;5063941;28;20170;-68
2023/04/04 04:25:22;;;;;;;1999.90;999.90;;;;;;;-1.53;100.00;95845.72;5063852;28;20173;-71
2023/04/04 04:27:47;;;;;;;1999.90;999.90;;;;;;;-1.60;100.00;95850.75;5063487;28;20174;-69
2023/04/04 04:30:12;;;;;;;1999.90;999.90;;;;;;;-1.60;100.00;95848.09;5062989;28;20214;-69
2023/04/04 04:32:38;;;;;;;1999.90;999.90;;;;;;;-1.61;100.00;95846.47;5063366;28;20178;-69
2023/04/04 04:35:04;;;;;;;1999.90;999.90;;;;;;;-1.62;100.00;95848.41;5063877;28;20189;-70
2023/04/04 04:37:29;;;;;;;1999.90;999.90;;;;;;;-1.61;100.00;95854.50;5063210;28;20177;-68
2023/04/04 04:39:55;;;;;;;1999.90;999.90;;;;;;;-1.67;100.00;95850.44;5063396;28;20198;-70
2023/04/04 04:42:21;;;;;;;1999.90;999.90;;;;;;;-1.64;100.00;95852.50;5063192;28;20178;-69
2023/04/04 04:44:46;;;;;;;1999.90;999.90;;;;;;;-1.63;100.00;95846.03;5063678;28;20174;-71
2023/04/04 04:47:11;;;;;;;1999.90;999.90;;;;;;;-1.64;100.00;95849.81;5063028;28;20166;-72
2023/04/04 04:49:37;;;;;;;1999.90;999.90;;;;;;;-1.64;100.00;95849.81;5063914;28;20170;-71
2023/04/04 04:52:02;;;;;;;1999.90;999.90;;;;;;;-1.67;100.00;95850.44;5066793;28;20170;-68
2023/04/04 04:54:27;;;;;;;1999.90;999.90;;;;;;;-1.61;100.00;95849.16;5066602;28;20194;-68
2023/04/04 04:56:53;;;;;;;1999.90;999.90;;;;;;;-1.57;100.00;95852.81;5066656;28;20174;-71
2023/04/04 04:59:19;;;;;;;1999.90;999.90;;;;;;;-1.46;100.00;95851.41;5067293;28;20275;-69
2023/04/04 05:01:45;;;;;;;1999.90;999.90;;;;;;;-1.24;100.00;95853.91;5066942;28;20178;-70
2023/04/04 05:04:10;;;;;;;1999.90;999.90;;;;;;;-1.13;100.00;95855.91;5066887;28;20382;-70
2023/04/04 05:06:37;;;;;;;1999.90;999.90;;;;;;;-1.08;100.00;95873.72;5066470;28;20173;-67
2023/04/04 05:09:02;;;;;;;1999.90;999.90;;;;;;;-0.70;100.00;95853.13;5066281;28;20175;-71
2023/04/04 05:11:28;;;;;;;1999.90;999.90;;;;;;;-0.44;100.00;95861.88;5066812;28;20283;-69
2023/04/04 05:13:53;;;;;;;1999.90;999.90;;;;;;;-0.07;100.00;95859.16;5066472;28;20177;-68
2023/04/04 05:16:19;;;;;;;1999.90;999.90;;;;;;;0.02;100.00;95867.19;5066290;28;20170;-70
2023/04/04 05:18:44;;;;;;;1999.90;999.90;;;;;;;-0.07;100.00;95871.81;5066860;28;20201;-70
2023/04/04 05:21:10;;;;;;;1999.90;999.90;;;;;;;0.51;100.00;95877.13;5066035;28;20167;-71
2023/04/04 05:23:35;;;;;;;1999.90;999.90;;;;;;;0.65;100.00;95869.59;5066163;28;20196;-72
2023/04/04 05:26:01;;;;;;;1999.90;999.90;;;;;;;1.08;100.00;95874.59;5066291;28;20328;-69
2023/04/04 05:28:27;;;;;;;1999.90;999.90;;;;;;;1.34;100.00;95878.59;5066514;28;20419;-69
2023/04/04 05:30:53;;;;;;;1999.90;999.90;;;;;;;0.85;100.00;95890.28;5065827;28;20218;-68
2023/04/04 05:33:18;;;;;;;1999.90;999.90;;;;;;;1.27;100.00;95883.72;5066479;28;20166;-67
2023/04/04 05:35:43;;;;;;;1999.90;999.90;;;;;;;1.43;100.00;95900.03;5065854;28;20191;-71
2023/04/04 05:38:09;;;;;;;1999.90;999.90;;;;;;;1.52;100.00;95885.38;5066415;28;20166;-66
2023/04/04 05:40:35;;;;;;;1999.90;999.90;;;;;;;1.44;100.00;95901.59;5065815;28;20370;-70
2023/04/04 05:43:03;;;;;;;1999.90;999.90;;;;;;;1.74;100.00;95898.41;5065411;28;20166;-73
2023/04/04 05:45:29;;;;;;;1999.90;999.90;;;;;;;2.14;100.00;95904.72;5066098;28;20170;-73
2023/04/04 05:47:54;;;;;;;1999.90;999.90;;;;;;;2.25;100.00;95900.47;5065730;28;20170;-74
2023/04/04 05:50:20;;;;;;;1999.90;999.90;;;;;;;2.53;100.00;95892.47;5066200;28;20213;-73
2023/04/04 05:52:45;;;;;;;1999.90;999.90;;;;;;;2.82;100.00;95901.06;5065917;28;20175;-75
2023/04/04 05:55:11;;;;;;;1999.90;999.90;;;;;;;3.48;100.00;95896.75;5065392;28;20190;-76
2023/04/04 05:57:36;;;;;;;1999.90;999.90;;;;;;;3.73;100.00;95896.59;5065562;28;20243;-74
2023/04/04 06:00:04;;;;;;;1999.90;999.90;;;;;;;4.08;100.00;95897.50;5064964;28;20169;-76
2023/04/04 06:02:30;;;;;;;1999.90;999.90;;;;;;;4.28;100.00;95908.03;5065354;28;20194;-72
2023/04/04 06:04:56;;;;;;;1999.90;999.90;;;;;;;4.70;100.00;95897.41;5065300;28;20191;-75
2023/04/04 06:07:21;;;;;;;1999.90;999.90;;;;;;;3.80;100.00;95910.28;5065684;28;20341;-72
2023/04/04 06:09:47;;;;;;;1999.90;999.90;;;;;;;3.40;100.00;95905.75;5065117;28;20166;-72
2023/04/04 06:12:12;;;;;;;1999.90;999.90;;;;;;;3.57;100.00;95898.50;5065082;28;20263;-75
2023/04/04 06:14:37;;;;;;;1999.90;999.90;;;;;;;3.69;100.00;95906.53;5065315;28;20272;-74
2023/04/04 06:17:03;;;;;;;1999.90;999.90;;;;;;;4.37;100.00;95918.66;5065270;28;20170;-78
2023/04/04 06:19:29;;;;;;;1999.90;999.90;;;;;;;4.81;100.00;95898.44;5065432;28;20166;-74
2023/04/04 06:21:55;;;;;;;1999.90;999.90;;;;;;;4.46;100.00;95913.84;5065039;28;20399;-75
2023/04/04 06:24:20;;;;;;;1999.90;999.90;;;;;;;4.67;100.00;95903.53;5065079;28;20175;-75
2023/04/04 06:26:50;;;;;;;1999.90;999.90;;;;;;;5.23;100.00;95900.09;5064844;28;20197;-73
2023/04/04 06:29:16;;;;;;;1999.90;999.90;;;;;;;5.45;100.00;95904.78;5064613;28;20221;-75
2023/04/04 06:31:41;;;;;;;1999.90;999.90;;;;;;;4.94;100.00;95910.69;5065291;28;20204;-76
2023/04/04 06:34:06;;;;;;;1999.90;999.90;;;;;;;5.56;100.00;95896.88;5064667;28;20511;-76
2023/04/04 06:36:32;;;;;;;1999.90;999.90;;;;;;;5.30;100.00;95904.88;5064802;28;20170;-78
2023/04/04 06:38:57;;;;;;;1999.90;999.90;;;;;;;4.70;100.00;95902.81;5065130;28;20172;-75
2023/04/04 06:41:22;;;;;;;1999.90;999.90;;;;;;;4.93;100.00;95892.88;5065019;28;20170;-76
2023/04/04 06:43:48;;;;;;;1999.90;999.90;;;;;;;5.44;100.00;95899.72;5064536;28;20209;-78
2023/04/04 06:46:13;;;;;;;1999.90;999.90;;;;;;;5.84;100.00;95894.72;5064467;28;20178;-77
2023/04/04 06:48:38;;;;;;;1999.90;999.90;;;;;;;6.23;100.00;95893.47;5063979;28;20243;-76
2023/04/04 06:51:07;;;;;;;1999.90;999.90;;;;;;;5.08;100.00;95894.75;5064125;28;20205;-76
2023/04/04 06:53:33;;;;;;;1999.90;999.90;;;;;;;6.07;100.00;95879.22;5064901;28;20248;-77
2023/04/04 06:55:59;;;;;;;1999.90;999.90;;;;;;;5.39;100.00;95892.69;5064322;28;20173;-76
2023/04/04 06:58:25;;;;;;;1999.90;999.90;;;;;;;5.72;100.00;95884.78;5064289;28;20170;-75
2023/04/04 07:00:50;;;;;;;1999.90;999.90;;;;;;;5.39;100.00;95886.50;5064364;28;20184;-76
2023/04/04 07:03:16;;;;;;;1999.90;999.90;;;;;;;5.60;100.00;95884.16;5064202;28;20177;-75
2023/04/04 07:05:41;;;;;;;1999.90;999.90;;;;;;;6.40;100.00;95882.09;5064133;28;20190;-74
2023/04/04 07:08:07;;;;;;;1999.90;999.90;;;;;;;5.83;99.63;95885.03;5064680;28;20173;-72
2023/04/04 07:10:33;;;;;;;1999.90;999.90;;;;;;;7.18;92.02;95889.41;5064193;28;20279;-75
2023/04/04 07:12:58;;;;;;;1999.90;999.90;;;;;;;6.35;89.72;95885.13;5063716;28;20173;-73
2023/04/04 07:15:24;;;;;;;1999.90;999.90;;;;;;;6.41;91.28;95886.41;5064833;28;20200;-73
2023/04/04 07:17:49;;;;;;;1999.90;999.90;;;;;;;6.73;89.73;95895.78;5064099;28;20362;-72
2023/04/04 07:20:14;;;;;;;1999.90;999.90;;;;;;;6.61;88.87;95898.69;5064460;28;20180;-73
2023/04/04 07:22:41;;;;;;;1999.90;999.90;;;;;;;6.48;85.28;95884.56;5064067;28;20245;-74
2023/04/04 07:25:07;;;;;;;1999.90;999.90;;;;;;;7.05;82.21;95880.72;5063886;28;20195;-73
2023/04/04 07:27:33;;;;;;;1999.90;999.90;;;;;;;7.72;81.27;95885.00;5063952;28;20172;-74
2023/04/04 07:29:58;;;;;;;1999.90;999.90;;;;;;;7.84;74.25;95901.06;5063510;28;20250;-72
2023/04/04 07:32:25;;;;;;;1999.90;999.90;;;;;;;6.96;77.80;95882.94;5064118;28;20265;-74
2023/04/04 07:34:50;;;;;;;1999.90;999.90;;;;;;;9.16;67.18;95894.34;5064582;28;20178;-75
2023/04/04 07:37:16;;;;;;;1999.90;999.90;;;;;;;7.93;63.57;95895.31;5063474;28;20490;-75
2023/04/04 07:39:41;;;;;;;1999.90;999.90;;;;;;;8.03;64.29;95887.25;5064386;28;20173;-74
2023/04/04 07:42:07;;;;;;;1999.90;999.90;;;;;;;7.40;68.77;95891.22;5064228;28;20236;-71
2023/04/04 07:44:32;;;;;;;1999.90;999.90;;;;;;;7.02;69.60;95886.88;5063745;28;20176;-74
2023/04/04 07:46:57;;;;;;;1999.90;999.90;;;;;;;6.56;71.23;95880.78;5063558;28;20358;-71
2023/04/04 07:49:23;;;;;;;1999.90;999.90;;;;;;;5.60;73.79;95889.59;5063818;28;20171;-76
2023/04/04 07:51:49;;;;;;;1999.90;999.90;;;;;;;6.41;74.95;95883.69;5064092;28;20205;-75
2023/04/04 07:54:14;;;;;;;1999.90;999.90;;;;;;;6.13;70.86;95891.34;5063685;28;20367;-77
2023/04/04 07:56:40;;;;;;;1999.90;999.90;;;;;;;4.91;77.42;95893.25;5063575;28;20170;-75
2023/04/04 07:59:05;;;;;;;1999.90;999.90;;;;;;;4.27;85.31;95894.88;5063432;28;20169;-77
2023/04/04 08:01:31;;;;;;;1999.90;999.90;;;;;;;3.89;90.75;95892.00;5064309;28;20174;-77
2023/04/04 08:03:56;;;;;;;1999.90;999.90;;;;;;;3.49;94.56;95887.50;5063615;28;20215;-77
2023/04/04 08:06:21;;;;;;;1999.90;999.90;;;;;;;4.47;93.19;95889.16;5063127;28;20193;-76
2023/04/04 08:08:47;;;;;;;1999.90;999.90;;;;;;;3.90;92.87;95897.06;5063379;28;20170;-76
2023/04/04 08:11:13;;;;;;;1999.90;999.90;;;;;;;3.54;94.64;95889.19;5063324;28;20203;-76
2023/04/04 08:13:38;;;;;;;1999.90;999.90;;;;;;;4.88;88.58;95879.66;5063475;28;20172;-74
2023/04/04 08:16:05;;;;;;;1999.90;999.90;;;;;;;4.26;88.19;95893.31;5063949;28;20163;-78
2023/04/04 08:18:30;;;;;;;1999.90;999.90;;;;;;;3.47;88.57;95887.06;5063445;28;20172;-77
2023/04/04 08:20:56;;;;;;;1999.90;999.90;;;;;;;3.38;92.31;95893.75;5063677;28;20510;-77
2023/04/04 08:23:21;;;;;;;1999.90;999.90;;;;;;;3.54;92.41;95892.66;5064109;28;20235;-76
2023/04/04 08:25:46;;;;;;;1999.90;999.90;;;;;;;3.29;95.50;95893.91;5067414;28;20174;-76
2023/04/04 08:28:12;;;;;;;1999.90;999.90;;;;;;;3.35;96.11;95889.03;5067616;28;20162;-78
2023/04/04 08:30:38;;;;;;;1999.90;999.90;;;;;;;3.51;98.37;95885.25;5066761;28;20222;-78
2023/04/04 08:33:03;;;;;;;1999.90;999.90;;;;;;;2.82;99.26;95889.47;5067210;28;20220;-76
2023/04/04 08:35:29;;;;;;;1999.90;999.90;;;;;;;3.00;98.93;95896.16;5067034;28;20174;-75
2023/04/04 08:37:54;;;;;;;1999.90;999.90;;;;;;;3.23;96.04;95895.28;5067619;28;20181;-76
2023/04/04 08:40:20;;;;;;;1999.90;999.90;;;;;;;5.21;87.83;95885.38;5066974;28;20186;-74
2023/04/04 08:42:47;;;;;;;1999.90;999.90;;;;;;;4.46;81.27;95914.66;5066993;28;20174;-74
2023/04/04 08:45:16;;;;;;;1999.90;999.90;;;;;;;3.75;77.27;95902.44;5066977;28;20217;-74
2023/04/04 08:47:43;;;;;;;1999.90;999.90;;;;;;;3.22;83.24;95907.22;5067577;28;20174;-77
2023/04/04 08:50:08;;;;;;;1999.90;999.90;;;;;;;3.11;85.56;95902.66;5067174;28;20249;-75
2023/04/04 08:52:34;;;;;;;1999.90;999.90;;;;;;;3.18;86.25;95898.22;5067188;28;20193;-70
2023/04/04 08:55:03;;;;;;;1999.90;999.90;;;;;;;2.85;89.20;95900.34;5066722;28;20288;-72
2023/04/04 08:57:28;;;;;;;1999.90;999.90;;;;;;;2.98;93.07;95904.59;5067092;28;20204;-72
2023/04/04 08:59:54;;;;;;;1999.90;999.90;;;;;;;3.28;91.12;95903.13;5066667;28;20170;-72
2023/04/04 09:02:28;;;;;;;1999.90;999.90;;;;;;;3.44;88.32;95911.28;5066134;28;20237;-72
2023/04/04 09:04:55;;;;;;;1999.90;999.90;;;;;;;2.88;81.71;95920.47;5066758;28;20215;-74
2023/04/04 09:07:21;;;;;;;1999.90;999.90;;;;;;;2.83;83.06;95912.59;5066369;28;20170;-72
2023/04/04 09:09:49;;;;;;;1999.90;999.90;;;;;;;3.04;82.14;95919.41;5066256;28;20208;-72
2023/04/04 09:12:16;;;;;;;1999.90;999.90;;;;;;;2.79;84.06;95911.72;5066218;28;20169;-72
2023/04/04 09:14:42;;;;;;;1999.90;999.90;;;;;;;3.20;83.68;95911.38;5066699;28;20331;-71
2023/04/04 09:17:09;;;;;;;1999.90;999.90;;;;;;;3.20;84.16;95904.06;5066505;28;20389;-73
2023/04/04 09:19:36;;;;;;;1999.90;999.90;;;;;;;3.08;85.42;95901.41;5066141;28;20228;-72
2023/04/04 09:22:05;;;;;;;1999.90;999.90;;;;;;;3.44;83.96;95900.47;5066961;28;20166;-72
2023/04/04 09:24:42;;;;;;;1999.90;999.90;;;;;;;3.06;85.01;95900.97;5066045;28;20186;-72
2023/04/04 09:27:12;;;;;;;1999.90;999.90;;;;;;;3.74;84.82;95898.16;5066291;28;20241;-73
2023/04/04 09:29:38;;;;;;;1999.90;999.90;;;;;;;3.70;80.59;95902.69;5066113;28;20248;-73
2023/04/04 09:32:13;;;;;;;1999.90;999.90;;;;;;;2.97;76.31;95905.72;5065954;28;20162;-72
2023/04/04 09:34:39;;;;;;;1999.90;999.90;;;;;;;3.69;76.93;95906.53;5066256;28;20169;-74
2023/04/04 09:37:05;;;;;;;1999.90;999.90;;;;;;;4.08;71.74;95919.13;5065894;28;20171;-77
2023/04/04 09:39:32;;;;;;;1999.90;999.90;;;;;;;4.05;72.00;95914.41;5066237;28;20167;-73
2023/04/04 09:41:58;;;;;;;1999.90;999.90;;;;;;;4.36;69.17;95919.78;5065904;28;20199;-73
2023/04/04 09:44:24;;;;;;;1999.90;999.90;;;;;;;6.62;62.68;95916.53;5066228;28;20168;-74
2023/04/04 09:46:51;;;;;;;1999.90;999.90;;;;;;;7.27;55.85;95909.69;5065697;28;20168;-71
2023/04/04 09:49:21;;;;;;;1999.90;999.90;;;;;;;5.67;56.53;95947.41;5066101;28;20169;-74
2023/04/04 09:51:55;;;;;;;1999.90;999.90;;;;;;;5.45;59.88;95928.38;5065558;28;20265;-71
2023/04/04 09:54:22;;;;;;;1999.90;999.90;;;;;;;4.89;60.67;95946.13;5065854;28;20195;-73
2023/04/04 09:56:48;;;;;;;1999.90;999.90;;;;;;;4.50;62.79;95925.53;5065228;28;20215;-71
2023/04/04 09:59:16;;;;;;;1999.90;999.90;;;;;;;4.31;66.47;95917.34;5065476;28;20169;-72
2023/04/04 10:01:44;;;;;;;1999.90;999.90;;;;;;;4.58;67.13;95916.44;5065716;28;20466;-72
2023/04/04 10:04:09;;;;;;;1999.90;999.90;;;;;;;4.27;68.92;95922.69;5065365;28;20199;-71
2023/04/04 10:06:36;;;;;;;1999.90;999.90;;;;;;;4.97;69.15;95918.09;5065379;28;20163;-71
2023/04/04 10:09:02;;;;;;;1999.90;999.90;;;;;;;5.52;65.36;95912.25;5065230;28;20172;-73
2023/04/04 10:11:32;;;;;;;1999.90;999.90;;;;;;;5.72;65.38;95911.13;5065147;28;20201;-72
2023/04/04 10:13:59;;;;;;;1999.90;999.90;;;;;;;6.91;61.01;95907.66;5065216;28;20169;-72
2023/04/04 10:16:25;;;;;;;1999.90;999.90;;;;;;;7.38;55.39;95910.63;5065077;28;20241;-72
2023/04/04 10:18:51;;;;;;;1999.90;999.90;;;;;;;8.25;53.46;95913.53;5065136;28;20173;-72
2023/04/04 10:21:17;;;;;;;1999.90;999.90;;;;;;;8.77;48.90;95909.66;5064998;28;20174;-74
2023/04/04 10:23:47;;;;;;;1999.90;999.90;;;;;;;7.11;51.37;95922.69;5064939;28;20422;-74
2023/04/04 10:26:13;;;;;;;1999.90;999.90;;;;;;;6.27;55.02;95921.41;5064871;28;20197;-75
2023/04/04 10:28:38;;;;;;;1999.90;999.90;;;;;;;7.25;54.02;95912.00;5065077;28;20171;-74
2023/04/04 10:31:24;;;;;;;1999.90;999.90;;;;;;;7.28;54.71;95913.97;5065102;28;20232;-76
2023/04/04 10:34:01;;;;;;;1999.90;999.90;;;;;;;6.06;56.62;95915.63;5065042;28;20170;-75
2023/04/04 10:36:30;;;;;;;1999.90;999.90;;;;;;;5.38;61.12;95914.69;5064595;28;20360;-75
2023/04/04 10:39:26;;;;;;;1999.90;999.90;;;;;;;6.11;57.03;95918.03;5065080;28;20174;-73
2023/04/04 10:41:52;;;;;;;1999.90;999.90;;;;;;;6.06;58.11;95910.19;5059821;28;20178;-73
2023/04/04 10:44:20;;;;;;;1999.90;999.90;;;;;;;4.97;59.63;95929.72;5064386;28;20165;-74
2023/04/04 10:46:50;;;;;;;1999.90;999.90;;;;;;;4.79;62.71;95919.63;5063814;28;20169;-75
2023/04/04 10:49:16;;;;;;;1999.90;999.90;;;;;;;6.94;59.78;95909.66;5064744;28;20166;-75
2023/04/04 10:51:42;;;;;;;1999.90;999.90;;;;;;;6.58;53.77;95930.06;5064606;28;20205;-73